sensor_id;sensor_type;location;lat;lon;timestamp;temperature;humidity
69054;DHT22;56125;52.242;4.756;2023-04-01T00:03:13;19.00;53.20
69054;DHT22;56125;52.242;4.756;2023-04-01T00:08:14;18.70;53.00
69054;DHT22;56125;52.242;4.756;2023-04-01T00:13:15;18.90;53.20
69054;DHT22;56125;52.242;4.756;2023-04-01T00:18:16;19.00;53.30
69054;DHT22;56125;52.242;4.756;2023-04-01T00:23:19;18.90;53.30
69054;DHT22;56125;52.242;4.756;2023-04-01T00:28:20;18.90;53.30
69054;DHT22;56125;52.242;4.756;2023-04-01T00:33:21;19.00;53.30
69054;DHT22;56125;52.242;4.756;2023-04-01T00:38:22;18.90;53.20
69054;DHT22;56125;52.242;4.756;2023-04-01T00:43:23;18.80;53.10
69054;DHT22;56125;52.242;4.756;2023-04-01T00:48:34;18.90;53.20
69054;DHT22;56125;52.242;4.756;2023-04-01T00:53:40;18.90;53.20
69054;DHT22;56125;52.242;4.756;2023-04-01T00:58:46;19.10;53.50
69054;DHT22;56125;52.242;4.756;2023-04-01T01:03:47;18.90;53.30
69054;DHT22;56125;52.242;4.756;2023-04-01T01:25:16;18.90;53.70
69054;DHT22;56125;52.242;4.756;2023-04-01T01:30:36;18.90;53.10
69054;DHT22;56125;52.242;4.756;2023-04-01T01:35:50;18.90;53.40
69054;DHT22;56125;52.242;4.756;2023-04-01T01:40:52;18.90;53.10
69054;DHT22;56125;52.242;4.756;2023-04-01T01:46:01;18.90;53.10
69054;DHT22;56125;52.242;4.756;2023-04-01T01:51:05;18.90;53.10
69054;DHT22;56125;52.242;4.756;2023-04-01T01:56:06;18.90;53.10
69054;DHT22;56125;52.242;4.756;2023-04-01T02:01:13;18.90;53.10
69054;DHT22;56125;52.242;4.756;2023-04-01T02:06:17;18.80;53.10
69054;DHT22;56125;52.242;4.756;2023-04-01T02:11:30;18.80;53.20
69054;DHT22;56125;52.242;4.756;2023-04-01T02:16:37;19.50;53.50
69054;DHT22;56125;52.242;4.756;2023-04-01T02:21:42;18.80;53.10
69054;DHT22;56125;52.242;4.756;2023-04-01T02:26:45;18.70;53.00
69054;DHT22;56125;52.242;4.756;2023-04-01T02:31:47;18.80;53.20
69054;DHT22;56125;52.242;4.756;2023-04-01T02:36:49;18.90;53.20
69054;DHT22;56125;52.242;4.756;2023-04-01T02:41:50;18.90;53.30
69054;DHT22;56125;52.242;4.756;2023-04-01T02:46:51;18.90;53.30
69054;DHT22;56125;52.242;4.756;2023-04-01T02:51:53;18.90;53.30
69054;DHT22;56125;52.242;4.756;2023-04-01T02:56:54;18.90;53.30
69054;DHT22;56125;52.242;4.756;2023-04-01T03:01:55;18.90;53.40
69054;DHT22;56125;52.242;4.756;2023-04-01T03:06:56;18.90;53.30
69054;DHT22;56125;52.242;4.756;2023-04-01T03:11:57;19.20;53.50
69054;DHT22;56125;52.242;4.756;2023-04-01T03:16:58;18.80;53.30
69054;DHT22;56125;52.242;4.756;2023-04-01T03:21:59;19.10;53.60
69054;DHT22;56125;52.242;4.756;2023-04-01T03:27:00;18.80;53.30
69054;DHT22;56125;52.242;4.756;2023-04-01T03:32:01;18.80;53.30
69054;DHT22;56125;52.242;4.756;2023-04-01T03:37:02;18.80;53.40
69054;DHT22;56125;52.242;4.756;2023-04-01T03:42:04;18.80;52.70
69054;DHT22;56125;52.242;4.756;2023-04-01T03:47:07;18.80;53.40
69054;DHT22;56125;52.242;4.756;2023-04-01T03:52:11;18.70;53.40
69054;DHT22;56125;52.242;4.756;2023-04-01T03:57:12;18.80;54.20
69054;DHT22;56125;52.242;4.756;2023-04-01T04:02:13;18.90;53.50
69054;DHT22;56125;52.242;4.756;2023-04-01T04:07:14;18.80;53.40
69054;DHT22;56125;52.242;4.756;2023-04-01T04:12:15;18.80;53.40
69054;DHT22;56125;52.242;4.756;2023-04-01T04:17:16;18.80;53.50
69054;DHT22;56125;52.242;4.756;2023-04-01T04:22:17;18.80;53.40
69054;DHT22;56125;52.242;4.756;2023-04-01T04:27:18;18.80;53.40
69054;DHT22;56125;52.242;4.756;2023-04-01T04:32:19;18.80;53.40
69054;DHT22;56125;52.242;4.756;2023-04-01T04:37:20;18.80;53.50
69054;DHT22;56125;52.242;4.756;2023-04-01T04:42:21;18.80;53.60
69054;DHT22;56125;52.242;4.756;2023-04-01T04:47:22;18.80;53.40
69054;DHT22;56125;52.242;4.756;2023-04-01T04:52:23;18.80;53.50
69054;DHT22;56125;52.242;4.756;2023-04-01T04:57:24;18.80;53.30
69054;DHT22;56125;52.242;4.756;2023-04-01T05:02:25;18.80;53.40
69054;DHT22;56125;52.242;4.756;2023-04-01T05:07:26;18.80;53.30
69054;DHT22;56125;52.242;4.756;2023-04-01T05:12:27;18.90;53.40
69054;DHT22;56125;52.242;4.756;2023-04-01T05:17:28;18.80;53.30
69054;DHT22;56125;52.242;4.756;2023-04-01T05:22:29;18.80;53.40
69054;DHT22;56125;52.242;4.756;2023-04-01T05:27:30;18.80;53.50
69054;DHT22;56125;52.242;4.756;2023-04-01T05:32:32;19.00;53.50
69054;DHT22;56125;52.242;4.756;2023-04-01T05:37:34;18.70;53.40
69054;DHT22;56125;52.242;4.756;2023-04-01T05:42:35;18.80;53.50
69054;DHT22;56125;52.242;4.756;2023-04-01T05:47:36;18.80;53.80
69054;DHT22;56125;52.242;4.756;2023-04-01T05:52:38;18.70;53.70
69054;DHT22;56125;52.242;4.756;2023-04-01T05:57:39;18.70;53.70
69054;DHT22;56125;52.242;4.756;2023-04-01T06:02:40;18.70;53.70
69054;DHT22;56125;52.242;4.756;2023-04-01T06:07:42;18.70;53.80
69054;DHT22;56125;52.242;4.756;2023-04-01T06:33:52;18.70;53.90
69054;DHT22;56125;52.242;4.756;2023-04-01T06:39:10;18.70;53.80
69054;DHT22;56125;52.242;4.756;2023-04-01T06:49:52;18.80;53.50
69054;DHT22;56125;52.242;4.756;2023-04-01T07:00:40;18.70;53.70
69054;DHT22;56125;52.242;4.756;2023-04-01T07:05:42;18.80;53.70
69054;DHT22;56125;52.242;4.756;2023-04-01T07:10:55;18.70;53.60
69054;DHT22;56125;52.242;4.756;2023-04-01T07:16:21;18.70;53.50
69054;DHT22;56125;52.242;4.756;2023-04-01T07:21:53;18.70;53.50
69054;DHT22;56125;52.242;4.756;2023-04-01T07:26:57;18.70;53.50
69054;DHT22;56125;52.242;4.756;2023-04-01T07:37:39;18.70;53.30
69054;DHT22;56125;52.242;4.756;2023-04-01T07:48:34;18.70;53.20
69054;DHT22;56125;52.242;4.756;2023-04-01T07:53:42;18.70;53.30
69054;DHT22;56125;52.242;4.756;2023-04-01T08:25:45;18.70;53.00
69054;DHT22;56125;52.242;4.756;2023-04-01T08:36:17;18.70;52.90
69054;DHT22;56125;52.242;4.756;2023-04-01T08:47:23;18.70;53.00
69054;DHT22;56125;52.242;4.756;2023-04-01T09:14:17;18.70;53.00
69054;DHT22;56125;52.242;4.756;2023-04-01T09:35:34;18.70;53.00
69054;DHT22;56125;52.242;4.756;2023-04-01T09:40:57;18.70;53.10
69054;DHT22;56125;52.242;4.756;2023-04-01T09:46:19;18.70;53.00
69054;DHT22;56125;52.242;4.756;2023-04-01T09:51:40;18.30;52.90
69054;DHT22;56125;52.242;4.756;2023-04-01T10:02:33;18.70;53.10
69054;DHT22;56125;52.242;4.756;2023-04-01T11:23:53;18.70;53.20
69054;DHT22;56125;52.242;4.756;2023-04-01T11:29:06;18.70;53.30
69054;DHT22;56125;52.242;4.756;2023-04-01T11:34:16;18.80;53.30
69054;DHT22;56125;52.242;4.756;2023-04-01T12:06:22;18.80;53.40
69054;DHT22;56125;52.242;4.756;2023-04-01T12:11:41;18.70;53.40
69054;DHT22;56125;52.242;4.756;2023-04-01T12:17:45;18.80;53.50
69054;DHT22;56125;52.242;4.756;2023-04-01T12:22:49;18.80;53.50
69054;DHT22;56125;52.242;4.756;2023-04-01T12:28:06;18.40;53.30
69054;DHT22;56125;52.242;4.756;2023-04-01T12:55:43;18.80;53.70
69054;DHT22;56125;52.242;4.756;2023-04-01T13:11:44;18.80;53.50
69054;DHT22;56125;52.242;4.756;2023-04-01T13:17:13;18.80;53.60
69054;DHT22;56125;52.242;4.756;2023-04-01T13:22:39;18.80;53.50
69054;DHT22;56125;52.242;4.756;2023-04-01T13:27:50;18.80;53.60
69054;DHT22;56125;52.242;4.756;2023-04-01T13:43:28;18.80;53.50
69054;DHT22;56125;52.242;4.756;2023-04-01T14:05:15;18.80;53.80
69054;DHT22;56125;52.242;4.756;2023-04-01T14:10:43;18.80;53.60
69054;DHT22;56125;52.242;4.756;2023-04-01T14:15:56;18.80;53.60
69054;DHT22;56125;52.242;4.756;2023-04-01T14:21:29;18.80;53.60
69054;DHT22;56125;52.242;4.756;2023-04-01T14:26:35;18.80;53.70
69054;DHT22;56125;52.242;4.756;2023-04-01T14:31:50;18.80;53.70
69054;DHT22;56125;52.242;4.756;2023-04-01T14:48:21;18.80;53.60
69054;DHT22;56125;52.242;4.756;2023-04-01T15:09:31;18.80;53.40
69054;DHT22;56125;52.242;4.756;2023-04-01T15:14:56;18.80;53.50
69054;DHT22;56125;52.242;4.756;2023-04-01T15:25:34;18.80;53.40
69054;DHT22;56125;52.242;4.756;2023-04-01T15:36:15;18.70;53.30
69054;DHT22;56125;52.242;4.756;2023-04-01T15:41:26;18.70;53.50
69054;DHT22;56125;52.242;4.756;2023-04-01T15:46:46;18.70;53.30
69054;DHT22;56125;52.242;4.756;2023-04-01T15:57:25;18.70;53.30
69054;DHT22;56125;52.242;4.756;2023-04-01T16:08:32;18.70;53.20
69054;DHT22;56125;52.242;4.756;2023-04-01T16:19:23;18.70;53.10
69054;DHT22;56125;52.242;4.756;2023-04-01T16:24:40;18.70;53.20
69054;DHT22;56125;52.242;4.756;2023-04-01T16:29:55;18.70;53.20
69054;DHT22;56125;52.242;4.756;2023-04-01T16:35:37;18.70;53.10
69054;DHT22;56125;52.242;4.756;2023-04-01T16:41:06;18.70;53.20
69054;DHT22;56125;52.242;4.756;2023-04-01T16:46:27;18.70;54.00
69054;DHT22;56125;52.242;4.756;2023-04-01T16:51:46;18.70;53.00
69054;DHT22;56125;52.242;4.756;2023-04-01T16:56:53;18.70;52.90
69054;DHT22;56125;52.242;4.756;2023-04-01T17:02:12;18.70;53.60
69054;DHT22;56125;52.242;4.756;2023-04-01T17:18:14;18.70;53.40
69054;DHT22;56125;52.242;4.756;2023-04-01T17:23:43;18.70;52.70
69054;DHT22;56125;52.242;4.756;2023-04-01T17:28:59;18.70;52.60
69054;DHT22;56125;52.242;4.756;2023-04-01T17:34:23;18.70;52.60
69054;DHT22;56125;52.242;4.756;2023-04-01T17:45:04;18.60;52.80
69054;DHT22;56125;52.242;4.756;2023-04-01T18:23:27;18.60;52.50
69054;DHT22;56125;52.242;4.756;2023-04-01T18:33:36;18.60;52.50
69054;DHT22;56125;52.242;4.756;2023-04-01T18:39:10;18.60;52.40
69054;DHT22;56125;52.242;4.756;2023-04-01T18:44:34;18.60;52.30
69054;DHT22;56125;52.242;4.756;2023-04-01T18:55:23;18.60;52.40
69054;DHT22;56125;52.242;4.756;2023-04-01T19:00:32;18.50;52.30
69054;DHT22;56125;52.242;4.756;2023-04-01T19:05:38;18.60;52.20
69054;DHT22;56125;52.242;4.756;2023-04-01T19:21:38;18.60;52.10
69054;DHT22;56125;52.242;4.756;2023-04-01T19:27:03;18.50;52.00
69054;DHT22;56125;52.242;4.756;2023-04-01T19:37:51;18.50;51.80
69054;DHT22;56125;52.242;4.756;2023-04-01T19:43:03;18.60;51.80
69054;DHT22;56125;52.242;4.756;2023-04-01T19:48:36;18.50;51.60
69054;DHT22;56125;52.242;4.756;2023-04-01T20:04:04;18.60;51.50
69054;DHT22;56125;52.242;4.756;2023-04-01T20:14:44;18.60;51.40
69054;DHT22;56125;52.242;4.756;2023-04-01T20:19:55;18.60;51.30
69054;DHT22;56125;52.242;4.756;2023-04-01T20:25:01;18.60;51.10
69054;DHT22;56125;52.242;4.756;2023-04-01T20:35:35;18.60;50.90
69054;DHT22;56125;52.242;4.756;2023-04-01T20:40:40;18.60;51.10
69054;DHT22;56125;52.242;4.756;2023-04-01T20:46:00;18.60;50.90
69054;DHT22;56125;52.242;4.756;2023-04-01T20:51:18;18.60;51.00
69054;DHT22;56125;52.242;4.756;2023-04-01T21:01:44;18.60;50.70
69054;DHT22;56125;52.242;4.756;2023-04-01T21:07:15;18.60;50.70
69054;DHT22;56125;52.242;4.756;2023-04-01T21:12:34;18.60;50.60
69054;DHT22;56125;52.242;4.756;2023-04-01T21:23:23;18.60;50.20
69054;DHT22;56125;52.242;4.756;2023-04-01T21:55:48;18.70;50.10
69054;DHT22;56125;52.242;4.756;2023-04-01T22:06:34;18.60;50.20
69054;DHT22;56125;52.242;4.756;2023-04-01T22:16:58;18.70;50.00
69054;DHT22;56125;52.242;4.756;2023-04-01T22:27:53;18.70;49.80
69054;DHT22;56125;52.242;4.756;2023-04-01T22:43:44;18.60;49.60
69054;DHT22;56125;52.242;4.756;2023-04-01T22:48:56;18.60;49.70
69054;DHT22;56125;52.242;4.756;2023-04-01T22:59:24;18.60;49.50
69054;DHT22;56125;52.242;4.756;2023-04-01T23:04:32;19.10;49.70
69054;DHT22;56125;52.242;4.756;2023-04-01T23:09:37;18.60;49.40
69054;DHT22;56125;52.242;4.756;2023-04-01T23:14:50;18.70;49.70
69054;DHT22;56125;52.242;4.756;2023-04-01T23:20:14;18.60;49.50
69054;DHT22;56125;52.242;4.756;2023-04-01T23:26:04;18.60;49.40
69054;DHT22;56125;52.242;4.756;2023-04-01T23:30:46;18.60;49.40
69054;DHT22;56125;52.242;4.756;2023-04-01T23:35:55;18.60;49.20
69054;DHT22;56125;52.242;4.756;2023-04-01T23:40:56;18.60;49.30
69054;DHT22;56125;52.242;4.756;2023-04-01T23:46:00;18.60;49.40
69054;DHT22;56125;52.242;4.756;2023-04-01T23:51:13;18.60;49.40
69054;DHT22;56125;52.242;4.756;2023-04-01T23:56:18;18.60;49.20
